sensor_id;sensor_type;location;lat;lon;timestamp;P1;durP1;ratioP1;P2;durP2;ratioP2
35969;SDS011;22448;51.298;6.430;2024-03-17T00:02:21;18.77;;;10.00;;
35969;SDS011;22448;51.298;6.430;2024-03-17T00:04:47;20.92;;;10.02;;
35969;SDS011;22448;51.298;6.430;2024-03-17T00:07:13;25.98;;;10.18;;
35969;SDS011;22448;51.298;6.430;2024-03-17T00:09:40;20.83;;;11.25;;
35969;SDS011;22448;51.298;6.430;2024-03-17T00:12:07;19.60;;;12.00;;
35969;SDS011;22448;51.298;6.430;2024-03-17T00:14:33;20.77;;;10.85;;
35969;SDS011;22448;51.298;6.430;2024-03-17T00:17:02;22.77;;;11.02;;
35969;SDS011;22448;51.298;6.430;2024-03-17T00:19:28;21.23;;;10.60;;
35969;SDS011;22448;51.298;6.430;2024-03-17T00:21:54;24.20;;;11.15;;
35969;SDS011;22448;51.298;6.430;2024-03-17T00:24:20;24.20;;;11.20;;
35969;SDS011;22448;51.298;6.430;2024-03-17T00:26:47;26.02;;;11.77;;
35969;SDS011;22448;51.298;6.430;2024-03-17T00:29:14;26.27;;;11.45;;
35969;SDS011;22448;51.298;6.430;2024-03-17T00:31:40;30.42;;;10.65;;
35969;SDS011;22448;51.298;6.430;2024-03-17T00:34:07;18.75;;;9.82;;
35969;SDS011;22448;51.298;6.430;2024-03-17T00:36:33;30.27;;;11.00;;
35969;SDS011;22448;51.298;6.430;2024-03-17T00:38:59;27.77;;;11.30;;
35969;SDS011;22448;51.298;6.430;2024-03-17T00:41:25;22.10;;;10.27;;
35969;SDS011;22448;51.298;6.430;2024-03-17T00:43:51;20.80;;;10.20;;
35969;SDS011;22448;51.298;6.430;2024-03-17T00:46:21;19.92;;;10.00;;
35969;SDS011;22448;51.298;6.430;2024-03-17T00:48:50;17.67;;;10.13;;
35969;SDS011;22448;51.298;6.430;2024-03-17T00:51:16;20.83;;;10.20;;
35969;SDS011;22448;51.298;6.430;2024-03-17T00:53:42;18.40;;;10.07;;
35969;SDS011;22448;51.298;6.430;2024-03-17T00:56:08;24.92;;;9.75;;
35969;SDS011;22448;51.298;6.430;2024-03-17T00:58:34;24.67;;;10.48;;
35969;SDS011;22448;51.298;6.430;2024-03-17T01:01:00;22.60;;;9.52;;
35969;SDS011;22448;51.298;6.430;2024-03-17T01:03:26;24.60;;;10.40;;
35969;SDS011;22448;51.298;6.430;2024-03-17T01:05:53;21.48;;;10.55;;
35969;SDS011;22448;51.298;6.430;2024-03-17T01:08:19;18.45;;;10.02;;
35969;SDS011;22448;51.298;6.430;2024-03-17T01:10:46;25.95;;;10.40;;
35969;SDS011;22448;51.298;6.430;2024-03-17T01:13:15;19.83;;;9.43;;
35969;SDS011;22448;51.298;6.430;2024-03-17T01:15:41;24.30;;;9.30;;
35969;SDS011;22448;51.298;6.430;2024-03-17T01:18:07;20.27;;;9.63;;
35969;SDS011;22448;51.298;6.430;2024-03-17T01:20:37;26.50;;;10.05;;
35969;SDS011;22448;51.298;6.430;2024-03-17T01:23:03;18.45;;;10.38;;
35969;SDS011;22448;51.298;6.430;2024-03-17T01:25:30;19.23;;;9.60;;
35969;SDS011;22448;51.298;6.430;2024-03-17T01:28:01;33.63;;;10.77;;
35969;SDS011;22448;51.298;6.430;2024-03-17T01:30:27;25.77;;;10.25;;
35969;SDS011;22448;51.298;6.430;2024-03-17T01:32:53;29.95;;;10.93;;
35969;SDS011;22448;51.298;6.430;2024-03-17T01:35:19;23.52;;;10.13;;
35969;SDS011;22448;51.298;6.430;2024-03-17T01:37:45;29.50;;;10.57;;
35969;SDS011;22448;51.298;6.430;2024-03-17T01:40:11;28.50;;;10.73;;
35969;SDS011;22448;51.298;6.430;2024-03-17T01:42:37;29.20;;;10.55;;
35969;SDS011;22448;51.298;6.430;2024-03-17T01:45:18;24.77;;;10.52;;
35969;SDS011;22448;51.298;6.430;2024-03-17T01:47:53;29.52;;;11.98;;
35969;SDS011;22448;51.298;6.430;2024-03-17T01:50:23;24.05;;;10.77;;
35969;SDS011;22448;51.298;6.430;2024-03-17T01:52:51;27.92;;;10.95;;
35969;SDS011;22448;51.298;6.430;2024-03-17T01:55:19;29.90;;;11.02;;
35969;SDS011;22448;51.298;6.430;2024-03-17T01:57:47;40.65;;;12.05;;
35969;SDS011;22448;51.298;6.430;2024-03-17T02:00:17;25.02;;;11.25;;
35969;SDS011;22448;51.298;6.430;2024-03-17T02:02:43;30.48;;;12.40;;
35969;SDS011;22448;51.298;6.430;2024-03-17T02:05:09;28.55;;;13.70;;
35969;SDS011;22448;51.298;6.430;2024-03-17T02:07:35;28.40;;;11.60;;
35969;SDS011;22448;51.298;6.430;2024-03-17T02:10:02;24.42;;;12.27;;
35969;SDS011;22448;51.298;6.430;2024-03-17T02:12:31;29.55;;;11.93;;
35969;SDS011;22448;51.298;6.430;2024-03-17T02:14:58;32.13;;;12.55;;
35969;SDS011;22448;51.298;6.430;2024-03-17T02:17:24;33.85;;;12.48;;
35969;SDS011;22448;51.298;6.430;2024-03-17T02:19:54;21.77;;;12.02;;
35969;SDS011;22448;51.298;6.430;2024-03-17T02:22:20;29.55;;;13.70;;
35969;SDS011;22448;51.298;6.430;2024-03-17T02:24:46;23.15;;;11.95;;
35969;SDS011;22448;51.298;6.430;2024-03-17T02:27:12;27.70;;;11.80;;
35969;SDS011;22448;51.298;6.430;2024-03-17T02:29:38;30.55;;;12.90;;
35969;SDS011;22448;51.298;6.430;2024-03-17T02:32:07;31.67;;;12.77;;
35969;SDS011;22448;51.298;6.430;2024-03-17T02:34:34;23.52;;;12.77;;
35969;SDS011;22448;51.298;6.430;2024-03-17T02:37:03;42.20;;;13.10;;
35969;SDS011;22448;51.298;6.430;2024-03-17T02:39:32;34.95;;;13.73;;
35969;SDS011;22448;51.298;6.430;2024-03-17T02:42:03;33.28;;;12.73;;
35969;SDS011;22448;51.298;6.430;2024-03-17T02:44:30;23.92;;;13.10;;
35969;SDS011;22448;51.298;6.430;2024-03-17T02:46:57;25.10;;;13.15;;
35969;SDS011;22448;51.298;6.430;2024-03-17T02:49:27;28.17;;;13.95;;
35969;SDS011;22448;51.298;6.430;2024-03-17T02:52:00;23.65;;;13.65;;
35969;SDS011;22448;51.298;6.430;2024-03-17T02:54:26;26.17;;;12.65;;
35969;SDS011;22448;51.298;6.430;2024-03-17T02:56:52;28.77;;;13.52;;
35969;SDS011;22448;51.298;6.430;2024-03-17T02:59:18;27.55;;;13.32;;
35969;SDS011;22448;51.298;6.430;2024-03-17T03:01:44;24.83;;;13.75;;
35969;SDS011;22448;51.298;6.430;2024-03-17T03:04:10;31.27;;;14.85;;
35969;SDS011;22448;51.298;6.430;2024-03-17T03:06:36;29.00;;;14.57;;
35969;SDS011;22448;51.298;6.430;2024-03-17T03:09:04;25.65;;;14.35;;
35969;SDS011;22448;51.298;6.430;2024-03-17T03:11:40;27.90;;;14.73;;
35969;SDS011;22448;51.298;6.430;2024-03-17T03:14:07;24.92;;;15.70;;
35969;SDS011;22448;51.298;6.430;2024-03-17T03:16:33;28.70;;;15.00;;
35969;SDS011;22448;51.298;6.430;2024-03-17T03:19:00;28.48;;;15.45;;
35969;SDS011;22448;51.298;6.430;2024-03-17T03:21:26;29.13;;;14.98;;
35969;SDS011;22448;51.298;6.430;2024-03-17T03:23:52;39.80;;;16.92;;
35969;SDS011;22448;51.298;6.430;2024-03-17T03:26:18;37.90;;;17.67;;
35969;SDS011;22448;51.298;6.430;2024-03-17T03:28:44;37.78;;;17.67;;
35969;SDS011;22448;51.298;6.430;2024-03-17T03:31:11;38.47;;;17.35;;
35969;SDS011;22448;51.298;6.430;2024-03-17T03:33:40;32.15;;;16.83;;
35969;SDS011;22448;51.298;6.430;2024-03-17T03:36:11;33.78;;;16.63;;
35969;SDS011;22448;51.298;6.430;2024-03-17T03:38:38;32.50;;;18.33;;
35969;SDS011;22448;51.298;6.430;2024-03-17T03:41:13;29.77;;;16.58;;
35969;SDS011;22448;51.298;6.430;2024-03-17T03:43:40;34.30;;;18.15;;
35969;SDS011;22448;51.298;6.430;2024-03-17T03:46:07;37.63;;;18.73;;
35969;SDS011;22448;51.298;6.430;2024-03-17T03:48:33;38.63;;;18.55;;
35969;SDS011;22448;51.298;6.430;2024-03-17T03:51:06;37.53;;;19.48;;
35969;SDS011;22448;51.298;6.430;2024-03-17T03:53:33;35.35;;;19.30;;
35969;SDS011;22448;51.298;6.430;2024-03-17T03:56:00;35.35;;;18.83;;
35969;SDS011;22448;51.298;6.430;2024-03-17T03:58:32;35.88;;;19.38;;
35969;SDS011;22448;51.298;6.430;2024-03-17T04:01:03;34.17;;;19.13;;
35969;SDS011;22448;51.298;6.430;2024-03-17T04:06:03;32.72;;;17.73;;
35969;SDS011;22448;51.298;6.430;2024-03-17T04:08:35;37.47;;;19.20;;
35969;SDS011;22448;51.298;6.430;2024-03-17T04:11:03;29.70;;;17.48;;
35969;SDS011;22448;51.298;6.430;2024-03-17T04:13:30;31.65;;;16.88;;
35969;SDS011;22448;51.298;6.430;2024-03-17T04:15:56;28.80;;;18.05;;
35969;SDS011;22448;51.298;6.430;2024-03-17T04:18:24;31.00;;;18.55;;
35969;SDS011;22448;51.298;6.430;2024-03-17T04:20:55;29.65;;;17.67;;
35969;SDS011;22448;51.298;6.430;2024-03-17T04:23:21;29.73;;;17.83;;
35969;SDS011;22448;51.298;6.430;2024-03-17T04:25:51;33.58;;;18.55;;
35969;SDS011;22448;51.298;6.430;2024-03-17T04:28:18;32.00;;;18.15;;
35969;SDS011;22448;51.298;6.430;2024-03-17T04:30:44;31.23;;;17.05;;
35969;SDS011;22448;51.298;6.430;2024-03-17T04:33:14;33.15;;;17.50;;
35969;SDS011;22448;51.298;6.430;2024-03-17T04:35:42;34.92;;;17.25;;
35969;SDS011;22448;51.298;6.430;2024-03-17T04:38:08;28.30;;;16.55;;
35969;SDS011;22448;51.298;6.430;2024-03-17T04:40:44;31.27;;;17.48;;
35969;SDS011;22448;51.298;6.430;2024-03-17T04:43:10;26.88;;;16.35;;
35969;SDS011;22448;51.298;6.430;2024-03-17T04:45:36;30.42;;;16.90;;
35969;SDS011;22448;51.298;6.430;2024-03-17T04:48:03;28.98;;;16.52;;
35969;SDS011;22448;51.298;6.430;2024-03-17T04:50:29;27.50;;;16.20;;
35969;SDS011;22448;51.298;6.430;2024-03-17T04:53:01;25.10;;;16.08;;
35969;SDS011;22448;51.298;6.430;2024-03-17T04:55:27;35.00;;;17.52;;
35969;SDS011;22448;51.298;6.430;2024-03-17T04:57:54;27.17;;;15.73;;
35969;SDS011;22448;51.298;6.430;2024-03-17T05:00:20;24.42;;;15.23;;
35969;SDS011;22448;51.298;6.430;2024-03-17T05:02:47;27.77;;;14.77;;
35969;SDS011;22448;51.298;6.430;2024-03-17T05:05:13;26.60;;;15.10;;
35969;SDS011;22448;51.298;6.430;2024-03-17T05:07:39;23.55;;;14.95;;
35969;SDS011;22448;51.298;6.430;2024-03-17T05:10:06;32.92;;;16.67;;
35969;SDS011;22448;51.298;6.430;2024-03-17T05:12:32;28.40;;;16.23;;
35969;SDS011;22448;51.298;6.430;2024-03-17T05:14:58;28.50;;;16.67;;
35969;SDS011;22448;51.298;6.430;2024-03-17T05:17:24;25.25;;;15.55;;
35969;SDS011;22448;51.298;6.430;2024-03-17T05:19:51;24.98;;;15.30;;
35969;SDS011;22448;51.298;6.430;2024-03-17T05:22:17;26.95;;;15.82;;
35969;SDS011;22448;51.298;6.430;2024-03-17T05:24:43;27.13;;;15.27;;
35969;SDS011;22448;51.298;6.430;2024-03-17T05:27:09;21.40;;;14.60;;
35969;SDS011;22448;51.298;6.430;2024-03-17T05:29:35;25.85;;;14.82;;
35969;SDS011;22448;51.298;6.430;2024-03-17T05:32:04;21.77;;;14.50;;
35969;SDS011;22448;51.298;6.430;2024-03-17T05:34:30;29.17;;;14.90;;
35969;SDS011;22448;51.298;6.430;2024-03-17T05:36:57;29.50;;;15.05;;
35969;SDS011;22448;51.298;6.430;2024-03-17T05:39:24;21.80;;;14.13;;
35969;SDS011;22448;51.298;6.430;2024-03-17T05:41:51;21.40;;;13.95;;
35969;SDS011;22448;51.298;6.430;2024-03-17T05:44:17;22.13;;;13.77;;
35969;SDS011;22448;51.298;6.430;2024-03-17T05:46:43;26.67;;;14.07;;
35969;SDS011;22448;51.298;6.430;2024-03-17T05:49:09;19.17;;;13.68;;
35969;SDS011;22448;51.298;6.430;2024-03-17T05:51:36;25.63;;;15.00;;
35969;SDS011;22448;51.298;6.430;2024-03-17T05:54:02;26.55;;;14.52;;
35969;SDS011;22448;51.298;6.430;2024-03-17T05:56:28;23.60;;;14.68;;
35969;SDS011;22448;51.298;6.430;2024-03-17T05:58:55;22.10;;;14.07;;
35969;SDS011;22448;51.298;6.430;2024-03-17T06:01:21;23.77;;;13.55;;
35969;SDS011;22448;51.298;6.430;2024-03-17T06:03:48;23.80;;;12.65;;
35969;SDS011;22448;51.298;6.430;2024-03-17T06:06:14;22.30;;;14.35;;
35969;SDS011;22448;51.298;6.430;2024-03-17T06:08:40;21.77;;;12.90;;
35969;SDS011;22448;51.298;6.430;2024-03-17T06:11:07;22.48;;;13.25;;
35969;SDS011;22448;51.298;6.430;2024-03-17T06:13:33;21.30;;;12.68;;
35969;SDS011;22448;51.298;6.430;2024-03-17T06:16:03;19.20;;;12.02;;
35969;SDS011;22448;51.298;6.430;2024-03-17T06:18:30;17.75;;;11.57;;
35969;SDS011;22448;51.298;6.430;2024-03-17T06:20:57;19.00;;;11.35;;
35969;SDS011;22448;51.298;6.430;2024-03-17T06:23:26;19.30;;;9.88;;
35969;SDS011;22448;51.298;6.430;2024-03-17T06:25:53;18.88;;;10.80;;
35969;SDS011;22448;51.298;6.430;2024-03-17T06:28:22;24.48;;;11.35;;
35969;SDS011;22448;51.298;6.430;2024-03-17T06:30:56;17.13;;;9.23;;
35969;SDS011;22448;51.298;6.430;2024-03-17T06:33:26;15.93;;;9.00;;
35969;SDS011;22448;51.298;6.430;2024-03-17T06:35:57;22.08;;;9.00;;
35969;SDS011;22448;51.298;6.430;2024-03-17T06:38:27;16.40;;;7.55;;
35969;SDS011;22448;51.298;6.430;2024-03-17T06:40:53;15.40;;;7.70;;
35969;SDS011;22448;51.298;6.430;2024-03-17T06:43:19;14.10;;;7.43;;
35969;SDS011;22448;51.298;6.430;2024-03-17T06:45:58;14.07;;;8.27;;
35969;SDS011;22448;51.298;6.430;2024-03-17T06:48:25;15.15;;;7.80;;
35969;SDS011;22448;51.298;6.430;2024-03-17T06:50:54;17.25;;;8.63;;
35969;SDS011;22448;51.298;6.430;2024-03-17T06:53:21;13.43;;;8.48;;
35969;SDS011;22448;51.298;6.430;2024-03-17T07:00:54;15.10;;;6.90;;
35969;SDS011;22448;51.298;6.430;2024-03-17T07:03:25;10.13;;;6.28;;
35969;SDS011;22448;51.298;6.430;2024-03-17T07:05:56;10.98;;;6.40;;
35969;SDS011;22448;51.298;6.430;2024-03-17T07:08:29;14.90;;;7.20;;
35969;SDS011;22448;51.298;6.430;2024-03-17T07:13:35;12.48;;;7.03;;
35969;SDS011;22448;51.298;6.430;2024-03-17T07:16:03;12.32;;;7.25;;
35969;SDS011;22448;51.298;6.430;2024-03-17T07:18:32;12.95;;;7.10;;
35969;SDS011;22448;51.298;6.430;2024-03-17T07:20:59;14.35;;;7.50;;
35969;SDS011;22448;51.298;6.430;2024-03-17T07:23:26;12.48;;;7.40;;
35969;SDS011;22448;51.298;6.430;2024-03-17T07:25:53;11.05;;;6.68;;
35969;SDS011;22448;51.298;6.430;2024-03-17T07:28:26;13.68;;;7.13;;
35969;SDS011;22448;51.298;6.430;2024-03-17T07:30:53;11.48;;;6.10;;
35969;SDS011;22448;51.298;6.430;2024-03-17T07:33:21;15.95;;;6.15;;
35969;SDS011;22448;51.298;6.430;2024-03-17T07:38:23;10.05;;;4.75;;
35969;SDS011;22448;51.298;6.430;2024-03-17T07:43:27;7.55;;;5.03;;
35969;SDS011;22448;51.298;6.430;2024-03-17T07:46:04;12.63;;;5.15;;
35969;SDS011;22448;51.298;6.430;2024-03-17T07:48:32;8.40;;;5.32;;
35969;SDS011;22448;51.298;6.430;2024-03-17T07:51:06;7.50;;;4.80;;
35969;SDS011;22448;51.298;6.430;2024-03-17T07:53:34;7.32;;;4.70;;
35969;SDS011;22448;51.298;6.430;2024-03-17T07:56:11;9.48;;;5.05;;
35969;SDS011;22448;51.298;6.430;2024-03-17T07:58:40;7.07;;;4.65;;
35969;SDS011;22448;51.298;6.430;2024-03-17T08:01:08;7.18;;;4.65;;
35969;SDS011;22448;51.298;6.430;2024-03-17T08:03:39;8.38;;;4.82;;
35969;SDS011;22448;51.298;6.430;2024-03-17T08:06:07;8.30;;;5.10;;
35969;SDS011;22448;51.298;6.430;2024-03-17T08:08:34;11.52;;;5.32;;
35969;SDS011;22448;51.298;6.430;2024-03-17T08:11:01;7.13;;;4.57;;
35969;SDS011;22448;51.298;6.430;2024-03-17T08:13:30;11.15;;;5.45;;
35969;SDS011;22448;51.298;6.430;2024-03-17T08:16:01;12.13;;;5.10;;
35969;SDS011;22448;51.298;6.430;2024-03-17T08:18:31;11.80;;;4.85;;
35969;SDS011;22448;51.298;6.430;2024-03-17T08:20:59;9.38;;;5.15;;
35969;SDS011;22448;51.298;6.430;2024-03-17T08:23:27;6.68;;;4.63;;
35969;SDS011;22448;51.298;6.430;2024-03-17T08:25:53;9.10;;;5.20;;
35969;SDS011;22448;51.298;6.430;2024-03-17T08:28:21;8.90;;;5.35;;
35969;SDS011;22448;51.298;6.430;2024-03-17T08:30:54;9.82;;;5.30;;
35969;SDS011;22448;51.298;6.430;2024-03-17T08:33:24;7.50;;;4.57;;
35969;SDS011;22448;51.298;6.430;2024-03-17T08:35:58;13.45;;;5.60;;
35969;SDS011;22448;51.298;6.430;2024-03-17T08:38:33;6.68;;;4.53;;
35969;SDS011;22448;51.298;6.430;2024-03-17T08:41:03;9.70;;;4.65;;
35969;SDS011;22448;51.298;6.430;2024-03-17T08:43:31;6.68;;;5.03;;
35969;SDS011;22448;51.298;6.430;2024-03-17T08:45:58;8.40;;;5.35;;
35969;SDS011;22448;51.298;6.430;2024-03-17T08:48:27;8.15;;;5.28;;
35969;SDS011;22448;51.298;6.430;2024-03-17T08:50:54;9.43;;;5.25;;
35969;SDS011;22448;51.298;6.430;2024-03-17T08:53:21;10.68;;;5.22;;
35969;SDS011;22448;51.298;6.430;2024-03-17T08:55:48;10.57;;;5.93;;
35969;SDS011;22448;51.298;6.430;2024-03-17T08:58:14;8.07;;;5.38;;
35969;SDS011;22448;51.298;6.430;2024-03-17T09:00:41;10.70;;;4.80;;
35969;SDS011;22448;51.298;6.430;2024-03-17T09:03:08;7.60;;;5.18;;
35969;SDS011;22448;51.298;6.430;2024-03-17T09:05:38;11.18;;;4.90;;
35969;SDS011;22448;51.298;6.430;2024-03-17T09:08:15;9.50;;;5.30;;
35969;SDS011;22448;51.298;6.430;2024-03-17T09:10:43;10.38;;;5.93;;
35969;SDS011;22448;51.298;6.430;2024-03-17T09:13:16;14.38;;;6.40;;
35969;SDS011;22448;51.298;6.430;2024-03-17T09:15:52;9.20;;;6.38;;
35969;SDS011;22448;51.298;6.430;2024-03-17T09:18:19;10.18;;;6.45;;
35969;SDS011;22448;51.298;6.430;2024-03-17T09:20:46;15.18;;;6.05;;
35969;SDS011;22448;51.298;6.430;2024-03-17T09:23:21;10.52;;;6.40;;
35969;SDS011;22448;51.298;6.430;2024-03-17T09:26:01;13.70;;;6.97;;
35969;SDS011;22448;51.298;6.430;2024-03-17T09:28:29;12.52;;;6.68;;
35969;SDS011;22448;51.298;6.430;2024-03-17T09:30:56;10.52;;;6.15;;
35969;SDS011;22448;51.298;6.430;2024-03-17T09:33:24;10.65;;;5.72;;
35969;SDS011;22448;51.298;6.430;2024-03-17T09:36:05;10.18;;;5.85;;
35969;SDS011;22448;51.298;6.430;2024-03-17T09:38:32;11.65;;;6.30;;
35969;SDS011;22448;51.298;6.430;2024-03-17T09:41:01;10.00;;;6.00;;
35969;SDS011;22448;51.298;6.430;2024-03-17T09:43:29;12.80;;;6.30;;
35969;SDS011;22448;51.298;6.430;2024-03-17T09:45:57;11.77;;;6.82;;
35969;SDS011;22448;51.298;6.430;2024-03-17T09:48:24;9.85;;;6.22;;
35969;SDS011;22448;51.298;6.430;2024-03-17T09:50:53;9.43;;;6.18;;
35969;SDS011;22448;51.298;6.430;2024-03-17T09:53:27;14.52;;;6.45;;
35969;SDS011;22448;51.298;6.430;2024-03-17T09:55:58;12.57;;;6.43;;
35969;SDS011;22448;51.298;6.430;2024-03-17T09:58:35;10.80;;;6.00;;
35969;SDS011;22448;51.298;6.430;2024-03-17T10:01:01;8.85;;;6.70;;
35969;SDS011;22448;51.298;6.430;2024-03-17T10:06:11;11.90;;;6.82;;
35969;SDS011;22448;51.298;6.430;2024-03-17T10:11:18;11.13;;;5.97;;
35969;SDS011;22448;51.298;6.430;2024-03-17T10:13:59;14.20;;;6.40;;
35969;SDS011;22448;51.298;6.430;2024-03-17T10:16:30;9.70;;;5.88;;
35969;SDS011;22448;51.298;6.430;2024-03-17T10:19:09;10.02;;;5.60;;
35969;SDS011;22448;51.298;6.430;2024-03-17T10:21:48;14.73;;;6.00;;
35969;SDS011;22448;51.298;6.430;2024-03-17T10:24:22;11.48;;;5.90;;
35969;SDS011;22448;51.298;6.430;2024-03-17T10:26:53;10.43;;;5.80;;
35969;SDS011;22448;51.298;6.430;2024-03-17T10:32:04;16.80;;;6.47;;
35969;SDS011;22448;51.298;6.430;2024-03-17T10:34:42;13.70;;;6.32;;
35969;SDS011;22448;51.298;6.430;2024-03-17T10:37:19;8.57;;;5.70;;
35969;SDS011;22448;51.298;6.430;2024-03-17T10:39:50;12.52;;;5.65;;
35969;SDS011;22448;51.298;6.430;2024-03-17T10:42:26;11.02;;;5.40;;
35969;SDS011;22448;51.298;6.430;2024-03-17T10:44:57;9.95;;;5.50;;
35969;SDS011;22448;51.298;6.430;2024-03-17T10:47:27;8.82;;;5.15;;
35969;SDS011;22448;51.298;6.430;2024-03-17T10:49:54;9.57;;;5.75;;
35969;SDS011;22448;51.298;6.430;2024-03-17T10:52:22;9.00;;;5.35;;
35969;SDS011;22448;51.298;6.430;2024-03-17T10:54:52;8.18;;;5.40;;
35969;SDS011;22448;51.298;6.430;2024-03-17T10:57:32;8.32;;;5.35;;
35969;SDS011;22448;51.298;6.430;2024-03-17T11:00:08;13.18;;;5.55;;
35969;SDS011;22448;51.298;6.430;2024-03-17T11:02:35;7.47;;;4.60;;
35969;SDS011;22448;51.298;6.430;2024-03-17T11:05:02;11.27;;;5.10;;
35969;SDS011;22448;51.298;6.430;2024-03-17T11:07:29;10.20;;;4.65;;
35969;SDS011;22448;51.298;6.430;2024-03-17T11:09:57;7.13;;;4.70;;
35969;SDS011;22448;51.298;6.430;2024-03-17T11:12:44;9.98;;;4.95;;
35969;SDS011;22448;51.298;6.430;2024-03-17T11:17:48;12.17;;;5.13;;
35969;SDS011;22448;51.298;6.430;2024-03-17T11:20:20;12.43;;;5.53;;
35969;SDS011;22448;51.298;6.430;2024-03-17T11:22:58;10.88;;;5.15;;
35969;SDS011;22448;51.298;6.430;2024-03-17T11:38:56;11.27;;;5.75;;
35969;SDS011;22448;51.298;6.430;2024-03-17T11:49:21;8.68;;;5.38;;
35969;SDS011;22448;51.298;6.430;2024-03-17T11:51:48;8.10;;;5.05;;
35969;SDS011;22448;51.298;6.430;2024-03-17T11:54:16;10.07;;;5.32;;
35969;SDS011;22448;51.298;6.430;2024-03-17T11:56:50;10.73;;;5.07;;
35969;SDS011;22448;51.298;6.430;2024-03-17T11:59:17;9.60;;;4.78;;
35969;SDS011;22448;51.298;6.430;2024-03-17T12:01:45;6.47;;;4.93;;
35969;SDS011;22448;51.298;6.430;2024-03-17T12:04:16;15.95;;;6.03;;
35969;SDS011;22448;51.298;6.430;2024-03-17T12:07:07;10.00;;;6.05;;
35969;SDS011;22448;51.298;6.430;2024-03-17T12:09:35;12.68;;;5.97;;
35969;SDS011;22448;51.298;6.430;2024-03-17T12:12:02;10.45;;;5.65;;
35969;SDS011;22448;51.298;6.430;2024-03-17T12:14:30;14.43;;;6.22;;
35969;SDS011;22448;51.298;6.430;2024-03-17T12:16:58;12.50;;;5.97;;
35969;SDS011;22448;51.298;6.430;2024-03-17T12:19:25;11.40;;;6.30;;
35969;SDS011;22448;51.298;6.430;2024-03-17T12:21:54;11.00;;;5.97;;
35969;SDS011;22448;51.298;6.430;2024-03-17T12:24:22;14.15;;;5.63;;
35969;SDS011;22448;51.298;6.430;2024-03-17T12:26:48;13.77;;;6.13;;
35969;SDS011;22448;51.298;6.430;2024-03-17T12:29:22;13.80;;;5.72;;
35969;SDS011;22448;51.298;6.430;2024-03-17T12:31:50;10.95;;;6.00;;
35969;SDS011;22448;51.298;6.430;2024-03-17T12:34:20;10.77;;;5.78;;
35969;SDS011;22448;51.298;6.430;2024-03-17T12:36:47;11.70;;;6.13;;
35969;SDS011;22448;51.298;6.430;2024-03-17T12:42:04;9.00;;;6.40;;
35969;SDS011;22448;51.298;6.430;2024-03-17T12:44:31;14.23;;;6.28;;
35969;SDS011;22448;51.298;6.430;2024-03-17T12:47:01;13.55;;;6.60;;
35969;SDS011;22448;51.298;6.430;2024-03-17T12:49:30;11.02;;;6.45;;
35969;SDS011;22448;51.298;6.430;2024-03-17T12:52:00;12.27;;;5.97;;
35969;SDS011;22448;51.298;6.430;2024-03-17T12:54:27;11.27;;;6.45;;
35969;SDS011;22448;51.298;6.430;2024-03-17T12:57:08;10.80;;;5.90;;
35969;SDS011;22448;51.298;6.430;2024-03-17T12:59:53;11.07;;;5.78;;
35969;SDS011;22448;51.298;6.430;2024-03-17T13:02:44;9.82;;;6.07;;
35969;SDS011;22448;51.298;6.430;2024-03-17T13:10:21;11.43;;;6.28;;
35969;SDS011;22448;51.298;6.430;2024-03-17T13:12:47;12.82;;;6.10;;
35969;SDS011;22448;51.298;6.430;2024-03-17T13:15:23;11.50;;;6.22;;
35969;SDS011;22448;51.298;6.430;2024-03-17T13:17:50;14.02;;;6.53;;
35969;SDS011;22448;51.298;6.430;2024-03-17T13:20:16;13.77;;;6.15;;
35969;SDS011;22448;51.298;6.430;2024-03-17T13:22:43;13.23;;;6.35;;
35969;SDS011;22448;51.298;6.430;2024-03-17T13:25:17;10.60;;;6.80;;
35969;SDS011;22448;51.298;6.430;2024-03-17T13:27:47;13.27;;;5.60;;
35969;SDS011;22448;51.298;6.430;2024-03-17T13:30:17;33.25;;;6.82;;
35969;SDS011;22448;51.298;6.430;2024-03-17T13:32:44;13.23;;;6.13;;
35969;SDS011;22448;51.298;6.430;2024-03-17T13:35:15;10.93;;;6.20;;
35969;SDS011;22448;51.298;6.430;2024-03-17T13:37:46;10.63;;;5.75;;
35969;SDS011;22448;51.298;6.430;2024-03-17T13:40:17;11.93;;;5.95;;
35969;SDS011;22448;51.298;6.430;2024-03-17T13:42:45;14.05;;;6.53;;
35969;SDS011;22448;51.298;6.430;2024-03-17T13:45:15;9.00;;;6.43;;
35969;SDS011;22448;51.298;6.430;2024-03-17T13:47:50;15.00;;;6.22;;
35969;SDS011;22448;51.298;6.430;2024-03-17T13:50:22;15.65;;;5.97;;
35969;SDS011;22448;51.298;6.430;2024-03-17T13:52:48;10.40;;;5.45;;
35969;SDS011;22448;51.298;6.430;2024-03-17T13:55:16;13.13;;;5.90;;
35969;SDS011;22448;51.298;6.430;2024-03-17T13:57:44;16.50;;;6.63;;
35969;SDS011;22448;51.298;6.430;2024-03-17T14:00:13;12.23;;;5.93;;
35969;SDS011;22448;51.298;6.430;2024-03-17T14:02:46;12.30;;;6.05;;
35969;SDS011;22448;51.298;6.430;2024-03-17T14:05:13;15.75;;;6.07;;
35969;SDS011;22448;51.298;6.430;2024-03-17T14:07:41;14.63;;;6.78;;
35969;SDS011;22448;51.298;6.430;2024-03-17T14:10:08;14.10;;;5.68;;
35969;SDS011;22448;51.298;6.430;2024-03-17T14:12:35;10.90;;;5.70;;
35969;SDS011;22448;51.298;6.430;2024-03-17T14:15:03;11.48;;;6.25;;
35969;SDS011;22448;51.298;6.430;2024-03-17T14:17:39;10.30;;;6.18;;
35969;SDS011;22448;51.298;6.430;2024-03-17T14:20:06;12.95;;;5.82;;
35969;SDS011;22448;51.298;6.430;2024-03-17T14:22:36;14.48;;;6.28;;
35969;SDS011;22448;51.298;6.430;2024-03-17T14:25:06;10.00;;;5.68;;
35969;SDS011;22448;51.298;6.430;2024-03-17T14:27:35;8.30;;;5.38;;
35969;SDS011;22448;51.298;6.430;2024-03-17T14:30:02;14.80;;;5.97;;
35969;SDS011;22448;51.298;6.430;2024-03-17T14:32:30;13.80;;;5.80;;
35969;SDS011;22448;51.298;6.430;2024-03-17T14:34:56;10.07;;;5.38;;
35969;SDS011;22448;51.298;6.430;2024-03-17T14:37:22;13.88;;;5.45;;
35969;SDS011;22448;51.298;6.430;2024-03-17T14:39:49;11.23;;;5.40;;
35969;SDS011;22448;51.298;6.430;2024-03-17T14:42:17;12.52;;;5.50;;
35969;SDS011;22448;51.298;6.430;2024-03-17T14:44:43;9.65;;;5.13;;
35969;SDS011;22448;51.298;6.430;2024-03-17T14:47:09;10.27;;;4.85;;
35969;SDS011;22448;51.298;6.430;2024-03-17T14:49:36;10.45;;;4.90;;
35969;SDS011;22448;51.298;6.430;2024-03-17T14:52:02;10.93;;;4.93;;
35969;SDS011;22448;51.298;6.430;2024-03-17T14:54:31;9.23;;;5.13;;
35969;SDS011;22448;51.298;6.430;2024-03-17T14:56:57;10.95;;;5.15;;
35969;SDS011;22448;51.298;6.430;2024-03-17T14:59:23;8.98;;;4.95;;
35969;SDS011;22448;51.298;6.430;2024-03-17T15:01:50;9.77;;;5.05;;
35969;SDS011;22448;51.298;6.430;2024-03-17T15:04:16;10.23;;;4.63;;
35969;SDS011;22448;51.298;6.430;2024-03-17T15:06:44;7.95;;;4.60;;
35969;SDS011;22448;51.298;6.430;2024-03-17T15:09:10;9.63;;;3.95;;
35969;SDS011;22448;51.298;6.430;2024-03-17T15:11:44;11.32;;;4.40;;
35969;SDS011;22448;51.298;6.430;2024-03-17T15:14:12;12.88;;;4.30;;
35969;SDS011;22448;51.298;6.430;2024-03-17T15:16:38;12.68;;;4.00;;
35969;SDS011;22448;51.298;6.430;2024-03-17T15:19:05;7.72;;;4.18;;
35969;SDS011;22448;51.298;6.430;2024-03-17T15:21:32;12.32;;;4.50;;
35969;SDS011;22448;51.298;6.430;2024-03-17T15:24:00;14.73;;;4.28;;
35969;SDS011;22448;51.298;6.430;2024-03-17T15:26:28;8.63;;;4.20;;
35969;SDS011;22448;51.298;6.430;2024-03-17T15:28:54;9.20;;;4.35;;
35969;SDS011;22448;51.298;6.430;2024-03-17T15:31:21;9.68;;;4.35;;
35969;SDS011;22448;51.298;6.430;2024-03-17T15:33:49;9.18;;;4.57;;
35969;SDS011;22448;51.298;6.430;2024-03-17T15:36:16;13.02;;;5.28;;